Time;durP1;ratioP1;P1;durP2;ratioP2;P2;SDS_P1;SDS_P2;PMS_P1;PMS_P2;Temp;Humidity;BMP_temperature;BMP_pressure;BME280_temperature;BME280_humidity;BME280_pressure;Samples;Min_cycle;Max_cycle;Signal;HPM_P1;HPM_P2
2022/07/08 00:01:28;;;;;;;10.02;2.05;;;;;;;13.92;72.43;102979.06;5030129;28;20037;-68
2022/07/08 00:03:53;;;;;;;6.82;2.53;;;;;;;13.94;72.09;102980.59;5056914;28;20575;-68
2022/07/08 00:06:18;;;;;;;9.85;1.92;;;;;;;13.98;70.74;102979.09;5025577;28;20029;-69
2022/07/08 00:08:44;;;;;;;9.98;1.92;;;;;;;13.92;72.85;102979.91;5030206;28;20025;-69
2022/07/08 00:11:10;;;;;;;11.05;2.25;;;;;;;13.93;74.73;102981.63;5042681;28;20039;-69
2022/07/08 00:13:35;;;;;;;8.40;1.80;;;;;;;13.95;74.97;102985.06;5033054;28;20045;-69
2022/07/08 00:16:00;;;;;;;9.13;2.20;;;;;;;13.96;74.79;102978.47;5023895;28;20028;-68
2022/07/08 00:18:26;;;;;;;7.95;1.98;;;;;;;13.93;73.83;102987.13;5035476;28;20029;-69
2022/07/08 00:20:51;;;;;;;9.18;2.20;;;;;;;13.90;74.90;102986.72;5043144;28;20031;-68
2022/07/08 00:23:16;;;;;;;7.82;2.00;;;;;;;13.90;76.38;102984.81;5042423;28;20029;-69
2022/07/08 00:25:41;;;;;;;9.82;2.70;;;;;;;13.87;75.47;102992.63;5032375;28;20037;-68
2022/07/08 00:28:07;;;;;;;8.35;2.42;;;;;;;13.84;76.83;102985.59;5026337;28;20095;-68
2022/07/08 00:30:32;;;;;;;7.85;2.30;;;;;;;13.81;77.01;102986.00;5044995;28;21018;-69
2022/07/08 00:32:57;;;;;;;7.38;2.13;;;;;;;13.74;77.37;102980.44;5043688;28;20029;-69
2022/07/08 00:35:23;;;;;;;9.20;2.78;;;;;;;13.69;78.55;102985.69;5035053;28;20036;-69
2022/07/08 00:37:48;;;;;;;8.60;2.58;;;;;;;13.68;77.34;102985.88;5024677;28;20037;-69
2022/07/08 00:40:13;;;;;;;8.95;2.47;;;;;;;13.63;77.64;102975.41;5026311;28;20021;-68
2022/07/08 00:42:39;;;;;;;12.63;2.72;;;;;;;13.60;78.79;102980.50;5037993;28;20057;-69
2022/07/08 00:45:04;;;;;;;8.38;2.50;;;;;;;13.61;78.82;102993.25;5034032;28;20495;-68
2022/07/08 00:47:30;;;;;;;9.88;2.53;;;;;;;13.53;80.32;102985.09;5043389;28;20144;-69
2022/07/08 00:49:55;;;;;;;9.70;2.50;;;;;;;13.52;80.51;102981.50;5044648;28;20043;-68
2022/07/08 00:52:21;;;;;;;11.00;2.55;;;;;;;13.49;80.98;102984.66;5028520;28;20789;-68
2022/07/08 00:54:47;;;;;;;7.75;2.67;;;;;;;13.48;80.27;102988.44;5025291;28;20075;-69
2022/07/08 00:57:13;;;;;;;10.57;3.08;;;;;;;13.49;80.01;102991.03;5025284;28;20041;-69
2022/07/08 00:59:38;;;;;;;9.38;2.70;;;;;;;13.47;80.36;102984.00;5025287;28;20061;-69
2022/07/08 01:02:04;;;;;;;10.77;2.72;;;;;;;13.47;80.05;102981.22;5031262;22;20037;-68
2022/07/08 01:04:31;;;;;;;9.52;2.80;;;;;;;13.44;80.41;102987.16;5029297;28;20036;-68
2022/07/08 01:06:56;;;;;;;9.77;3.20;;;;;;;13.43;81.51;102994.59;5023023;28;20056;-68
2022/07/08 01:09:22;;;;;;;12.50;3.22;;;;;;;13.38;81.61;102987.94;5023879;28;20546;-69
2022/07/08 01:11:48;;;;;;;9.05;3.05;;;;;;;13.35;81.14;102991.09;5020421;28;20226;-68
2022/07/08 01:14:16;;;;;;;9.18;2.75;;;;;;;13.28;81.33;102993.81;5023811;28;20118;-69
2022/07/08 01:16:41;;;;;;;11.75;3.00;;;;;;;13.21;82.10;102992.81;5023448;28;20025;-69
2022/07/08 01:19:07;;;;;;;8.65;3.08;;;;;;;13.12;82.07;102991.22;5020099;28;20387;-69
2022/07/08 01:21:32;;;;;;;7.88;2.92;;;;;;;13.06;82.59;102994.78;5020807;28;20030;-69
2022/07/08 01:23:57;;;;;;;10.07;3.00;;;;;;;13.02;83.12;102998.97;5019256;28;20029;-68
2022/07/08 01:26:24;;;;;;;8.30;2.88;;;;;;;12.95;82.86;102994.22;5024843;28;20031;-69
2022/07/08 01:28:49;;;;;;;10.20;3.03;;;;;;;12.87;83.53;102991.56;5025017;28;20033;-69
2022/07/08 01:31:15;;;;;;;9.80;2.97;;;;;;;12.81;84.47;102986.84;5023423;28;20030;-68
2022/07/08 01:33:40;;;;;;;12.35;3.35;;;;;;;12.75;84.24;102986.78;5023372;28;20494;-69
2022/07/08 01:36:06;;;;;;;9.35;2.90;;;;;;;12.68;84.73;102997.72;5024191;28;20392;-68
2022/07/08 01:38:31;;;;;;;8.55;3.05;;;;;;;12.58;85.51;102997.16;5024913;28;20033;-69
2022/07/08 01:40:57;;;;;;;10.77;3.47;;;;;;;12.50;85.50;102991.75;5019539;28;20057;-68
2022/07/08 01:43:22;;;;;;;10.00;3.05;;;;;;;12.46;86.01;102983.00;5023456;28;20531;-68
2022/07/08 01:45:47;;;;;;;7.85;3.10;;;;;;;12.41;86.42;102986.31;5021836;28;20112;-69
2022/07/08 01:48:13;;;;;;;9.85;3.55;;;;;;;12.40;86.38;102992.03;5021674;28;20522;-68
2022/07/08 01:50:38;;;;;;;14.50;3.60;;;;;;;12.40;86.31;102983.75;5021176;28;20080;-68
2022/07/08 01:53:04;;;;;;;13.20;4.00;;;;;;;12.39;86.31;102979.31;5028189;28;20036;-69
2022/07/08 01:55:29;;;;;;;12.07;3.78;;;;;;;12.40;87.14;102972.75;5028838;28;20032;-69
2022/07/08 01:57:54;;;;;;;10.00;4.00;;;;;;;12.37;86.92;102976.75;5026691;28;20026;-69
2022/07/08 02:00:19;;;;;;;9.45;3.72;;;;;;;12.34;86.93;102979.88;5026634;28;20073;-69
2022/07/08 02:02:47;;;;;;;9.63;3.63;;;;;;;12.30;87.15;102974.94;5027331;28;20053;-69
2022/07/08 02:05:12;;;;;;;11.38;3.63;;;;;;;12.32;87.46;102976.47;5028094;28;20029;-69
2022/07/08 02:07:38;;;;;;;13.93;3.70;;;;;;;12.32;87.17;102976.47;5027290;28;20036;-69
2022/07/08 02:10:05;;;;;;;11.13;3.50;;;;;;;12.31;87.08;102974.72;5028339;28;20014;-69
2022/07/08 02:12:30;;;;;;;11.02;3.70;;;;;;;12.34;87.69;102979.03;5027749;28;20064;-69
2022/07/08 02:15:04;;;;;;;12.77;3.80;;;;;;;12.36;87.85;102987.94;5018248;28;20049;-68
2022/07/08 02:17:36;;;;;;;11.80;4.72;;;;;;;12.39;88.03;102990.31;5027414;28;20028;-69
2022/07/08 02:20:04;;;;;;;11.10;4.15;;;;;;;12.35;87.56;102992.59;5026940;28;20079;-69
2022/07/08 02:22:29;;;;;;;11.55;3.85;;;;;;;12.29;88.03;102992.50;5027898;28;20025;-70
2022/07/08 02:24:54;;;;;;;16.38;3.78;;;;;;;12.20;87.94;102995.34;5027288;28;20030;-68
2022/07/08 02:27:20;;;;;;;10.50;3.83;;;;;;;12.19;88.26;102990.88;5027843;28;20022;-70
2022/07/08 02:29:46;;;;;;;10.57;3.88;;;;;;;12.07;88.66;102986.91;5027532;28;20069;-69
2022/07/08 02:32:11;;;;;;;9.38;3.58;;;;;;;11.98;89.02;102988.03;5027087;28;20029;-69
2022/07/08 02:34:37;;;;;;;12.48;4.93;;;;;;;11.94;89.40;102987.53;5027190;28;20545;-69
2022/07/08 02:37:03;;;;;;;8.63;3.88;;;;;;;11.94;89.56;102990.28;5026606;28;20034;-69
2022/07/08 02:39:28;;;;;;;9.73;4.65;;;;;;;11.95;89.93;103000.25;5027374;28;20083;-69
2022/07/08 02:41:54;;;;;;;10.60;4.00;;;;;;;11.93;89.30;102994.09;5026073;28;20083;-68
2022/07/08 02:44:19;;;;;;;12.55;4.07;;;;;;;11.95;89.38;102996.66;5027473;28;20033;-69
2022/07/08 02:46:45;;;;;;;13.73;4.40;;;;;;;11.97;89.85;102997.34;5026186;28;20032;-69
2022/07/08 02:49:11;;;;;;;13.18;4.10;;;;;;;12.00;90.11;102990.56;5027924;28;20026;-69
2022/07/08 02:51:37;;;;;;;12.75;4.78;;;;;;;12.05;90.07;102991.72;5026209;28;20039;-69
2022/07/08 02:54:03;;;;;;;13.18;4.15;;;;;;;12.04;90.24;102987.25;5027646;28;20056;-69
2022/07/08 02:56:29;;;;;;;13.10;4.20;;;;;;;12.04;89.83;102984.50;5026181;28;20034;-69
2022/07/08 02:58:54;;;;;;;11.38;4.60;;;;;;;12.10;89.99;102996.66;5027234;28;20032;-68
2022/07/08 03:01:20;;;;;;;12.65;5.28;;;;;;;12.10;90.29;102994.75;5024169;28;20025;-68
2022/07/08 03:03:45;;;;;;;11.65;4.45;;;;;;;12.10;90.56;102991.16;5022265;28;20080;-69
2022/07/08 03:06:10;;;;;;;13.82;4.32;;;;;;;12.08;90.03;102996.88;5027393;28;20131;-69
2022/07/08 03:08:36;;;;;;;10.60;4.43;;;;;;;12.03;89.61;102993.81;5027575;28;20037;-69
2022/07/08 03:11:01;;;;;;;13.45;5.03;;;;;;;12.04;89.92;102994.69;5023359;28;20021;-68
2022/07/08 03:13:26;;;;;;;12.15;4.55;;;;;;;12.07;90.02;102995.16;5025793;28;20391;-69
2022/07/08 03:15:51;;;;;;;10.90;4.25;;;;;;;12.09;90.08;102992.22;5024931;28;20036;-68
2022/07/08 03:18:17;;;;;;;11.32;4.57;;;;;;;12.12;90.04;102997.34;5024555;28;20039;-69
2022/07/08 03:20:42;;;;;;;12.90;4.55;;;;;;;12.14;90.35;102990.59;5024349;28;21534;-69
2022/07/08 03:23:07;;;;;;;11.38;4.68;;;;;;;12.17;89.97;102989.38;5026079;28;20049;-69
2022/07/08 03:25:33;;;;;;;14.10;4.90;;;;;;;12.19;90.37;102993.63;5025837;28;20075;-69
2022/07/08 03:27:58;;;;;;;15.80;5.05;;;;;;;12.15;90.20;102997.81;5025151;28;20044;-69
2022/07/08 03:30:24;;;;;;;12.00;4.45;;;;;;;12.11;89.71;103001.13;5023154;28;20029;-69
2022/07/08 03:32:49;;;;;;;11.70;5.13;;;;;;;11.99;89.38;102997.13;5026789;28;20041;-69
2022/07/08 03:35:14;;;;;;;11.18;4.75;;;;;;;11.92;89.78;103003.41;5026754;28;20076;-69
2022/07/08 03:37:44;;;;;;;11.05;5.18;;;;;;;11.85;90.41;102998.81;5026051;28;20029;-69
2022/07/08 03:42:54;;;;;;;14.60;5.00;;;;;;;11.84;90.83;102997.09;5024438;28;20080;-69
2022/07/08 03:45:19;;;;;;;13.18;4.97;;;;;;;11.83;91.02;103001.75;5025812;28;20021;-69
2022/07/08 03:47:45;;;;;;;13.80;5.40;;;;;;;11.87;91.25;103005.84;5027294;28;20500;-69
2022/07/08 03:50:10;;;;;;;12.13;5.30;;;;;;;11.90;91.11;103005.47;5023890;28;20446;-69
2022/07/08 03:52:35;;;;;;;12.95;5.22;;;;;;;11.85;90.90;103009.81;5025291;28;20112;-69
2022/07/08 03:55:01;;;;;;;12.95;6.15;;;;;;;11.86;91.57;102997.75;5023683;28;20036;-69
2022/07/08 03:57:26;;;;;;;12.73;5.18;;;;;;;11.86;91.95;103008.78;5024137;28;20024;-69
2022/07/08 03:59:51;;;;;;;13.85;5.10;;;;;;;11.86;91.45;103001.41;5024065;28;20034;-68
2022/07/08 04:02:16;;;;;;;12.02;5.45;;;;;;;11.87;91.60;102996.75;5025473;28;20470;-69
2022/07/08 04:04:42;;;;;;;14.55;5.22;;;;;;;11.87;91.62;102999.50;5025368;28;20033;-69
2022/07/08 04:07:07;;;;;;;14.45;5.88;;;;;;;11.86;91.74;103004.16;5023247;28;20766;-69
2022/07/08 04:09:32;;;;;;;15.15;6.95;;;;;;;11.87;92.00;102999.50;5026058;28;20033;-69
2022/07/08 04:11:58;;;;;;;15.45;5.82;;;;;;;11.90;91.75;103004.63;5025461;28;20025;-69
2022/07/08 04:14:23;;;;;;;14.07;6.07;;;;;;;11.91;91.90;103012.72;5020034;28;20428;-69
2022/07/08 04:16:48;;;;;;;12.80;6.10;;;;;;;11.97;92.02;103013.00;5008928;28;20049;-69
2022/07/08 04:19:13;;;;;;;16.88;6.32;;;;;;;12.00;91.71;103015.38;5025713;28;20032;-69
2022/07/08 04:21:40;;;;;;;13.35;5.82;;;;;;;12.05;91.22;103007.41;5025303;28;20057;-69
2022/07/08 04:24:05;;;;;;;16.92;6.05;;;;;;;12.05;90.86;103004.63;5023251;28;20455;-69
2022/07/08 04:26:33;;;;;;;19.58;5.88;;;;;;;12.08;90.47;103012.53;5024159;28;20040;-70
2022/07/08 04:28:59;;;;;;;17.80;6.43;;;;;;;12.12;90.76;103016.63;5019627;28;20071;-69
2022/07/08 04:31:25;;;;;;;17.13;6.47;;;;;;;12.16;90.22;103017.94;5022303;28;20045;-70
2022/07/08 04:33:51;;;;;;;12.85;5.47;;;;;;;12.27;89.50;103012.00;5014914;28;20029;-69
2022/07/08 04:36:16;;;;;;;18.25;5.75;;;;;;;12.33;89.32;103007.63;5021409;28;20076;-69
2022/07/08 04:38:41;;;;;;;16.35;5.78;;;;;;;12.37;89.21;103007.06;5021608;28;20032;-69
2022/07/08 04:41:06;;;;;;;17.95;5.47;;;;;;;12.40;88.76;103003.91;5025677;28;20026;-69
2022/07/08 04:43:32;;;;;;;13.93;5.50;;;;;;;12.43;88.69;103017.31;5023944;28;20478;-69
2022/07/08 04:45:57;;;;;;;11.77;5.20;;;;;;;12.42;88.55;103021.13;5024524;28;20030;-69
2022/07/08 04:48:22;;;;;;;16.20;5.35;;;;;;;12.42;88.70;103021.13;5023717;28;20064;-70
2022/07/08 04:50:48;;;;;;;15.27;5.60;;;;;;;12.42;88.54;103025.78;5025517;28;20026;-69
2022/07/08 04:53:13;;;;;;;13.25;5.80;;;;;;;12.41;88.69;103035.94;5024064;28;20043;-69
2022/07/08 04:55:38;;;;;;;18.92;5.57;;;;;;;12.44;88.74;103027.28;5024232;28;20026;-69
2022/07/08 04:58:04;;;;;;;14.10;6.05;;;;;;;12.46;88.56;103038.97;5022923;28;20042;-69
2022/07/08 05:00:32;;;;;;;17.00;6.10;;;;;;;12.50;88.31;103038.59;5019736;28;20690;-69
2022/07/08 05:02:57;;;;;;;17.30;6.35;;;;;;;12.53;88.96;103036.31;5021861;28;20049;-69
2022/07/08 05:05:23;;;;;;;20.98;6.63;;;;;;;12.56;88.83;103046.09;5024884;28;20042;-69
2022/07/08 05:07:49;;;;;;;18.35;6.57;;;;;;;12.59;88.65;103049.34;5024662;28;20025;-69
2022/07/08 05:10:20;;;;;;;20.20;6.65;;;;;;;12.62;88.72;103051.72;5020446;28;20022;-68
2022/07/08 05:12:46;;;;;;;17.95;5.72;;;;;;;12.68;88.07;103063.91;5020830;28;20396;-68
2022/07/08 05:15:11;;;;;;;22.05;6.55;;;;;;;12.69;88.57;103060.09;5019739;28;20025;-69
2022/07/08 05:17:40;;;;;;;16.95;6.13;;;;;;;12.73;88.02;103067.78;5021930;28;20531;-69
2022/07/08 05:20:08;;;;;;;17.90;5.90;;;;;;;12.77;87.82;103061.88;5019685;28;20033;-70
2022/07/08 05:22:33;;;;;;;20.17;7.18;;;;;;;12.83;87.42;103067.50;5023140;28;20022;-69
2022/07/08 05:24:58;;;;;;;15.20;5.85;;;;;;;12.86;87.27;103064.34;5023824;28;20491;-70
2022/07/08 05:27:24;;;;;;;15.95;6.00;;;;;;;12.92;87.98;103073.75;5029565;28;20018;-70
2022/07/08 05:29:49;;;;;;;16.85;5.75;;;;;;;12.96;86.86;103070.41;5028657;28;20028;-70
2022/07/08 05:32:14;;;;;;;16.13;5.75;;;;;;;13.01;86.73;103063.47;5029320;28;20102;-69
2022/07/08 05:34:41;;;;;;;18.88;5.60;;;;;;;13.07;86.53;103073.72;5027082;28;20495;-69
2022/07/08 05:37:07;;;;;;;18.33;5.28;;;;;;;13.09;87.09;103077.16;5027625;28;20115;-69
2022/07/08 05:39:33;;;;;;;22.35;6.80;;;;;;;13.18;86.35;103076.00;5028543;28;20025;-69
2022/07/08 05:41:58;;;;;;;17.10;5.63;;;;;;;13.27;86.21;103074.00;5028597;28;20131;-69
2022/07/08 05:44:24;;;;;;;13.35;4.80;;;;;;;13.37;85.51;103074.53;5025142;28;20458;-69
2022/07/08 05:46:49;;;;;;;14.98;5.40;;;;;;;13.63;85.64;103079.50;5024853;28;20029;-69
2022/07/08 05:49:14;;;;;;;21.10;5.57;;;;;;;13.72;84.38;103072.81;5029101;28;20126;-69
2022/07/08 05:51:39;;;;;;;18.10;6.53;;;;;;;13.70;84.23;103069.41;5027868;28;20029;-68
2022/07/08 05:54:05;;;;;;;16.48;5.45;;;;;;;13.74;85.10;103074.31;5025173;28;20033;-68
2022/07/08 05:56:30;;;;;;;17.08;5.82;;;;;;;13.92;84.58;103082.13;5024947;28;20036;-69
2022/07/08 05:58:55;;;;;;;18.38;5.82;;;;;;;13.95;83.40;103084.50;5026460;28;20040;-68
2022/07/08 06:01:20;;;;;;;14.90;5.85;;;;;;;13.94;82.92;103082.81;5027078;28;20060;-69
2022/07/08 06:03:46;;;;;;;20.48;5.38;;;;;;;13.96;83.83;103085.34;5027117;28;20048;-68
2022/07/08 06:06:11;;;;;;;15.15;5.78;;;;;;;13.98;84.81;103086.00;5027754;28;20052;-68
2022/07/08 06:08:37;;;;;;;20.60;6.55;;;;;;;13.99;83.16;103084.97;5027955;28;20033;-69
2022/07/08 06:11:02;;;;;;;20.65;5.72;;;;;;;14.02;83.63;103084.56;5027393;28;20032;-69
2022/07/08 06:13:28;;;;;;;17.90;6.63;;;;;;;14.09;83.59;103092.91;5026143;28;20029;-69
2022/07/08 06:15:53;;;;;;;17.33;5.70;;;;;;;14.18;85.31;103094.47;5021759;28;20487;-68
2022/07/08 06:18:19;;;;;;;23.77;5.57;;;;;;;14.24;83.19;103094.53;5028050;28;20037;-69
2022/07/08 06:20:44;;;;;;;14.27;5.18;;;;;;;14.30;83.81;103092.88;5028103;28;20029;-69
2022/07/08 06:23:09;;;;;;;16.73;5.30;;;;;;;14.36;82.22;103100.38;5025906;28;20476;-69
2022/07/08 06:25:35;;;;;;;16.27;5.50;;;;;;;14.41;83.35;103099.75;5026456;28;20033;-69
2022/07/08 06:28:00;;;;;;;16.45;4.85;;;;;;;14.42;83.36;103096.78;5027734;28;20026;-69
2022/07/08 06:30:26;;;;;;;14.45;4.90;;;;;;;14.49;83.27;103094.09;5026027;28;20022;-69
2022/07/08 06:32:51;;;;;;;15.30;4.95;;;;;;;14.55;82.20;103104.38;5027265;28;20377;-68
2022/07/08 06:35:16;;;;;;;17.65;4.88;;;;;;;14.59;82.03;103099.28;5025943;28;20061;-68
2022/07/08 06:37:41;;;;;;;20.13;5.03;;;;;;;14.64;81.12;103091.22;5027129;28;20051;-69
2022/07/08 06:40:07;;;;;;;20.70;5.53;;;;;;;14.75;81.44;103101.72;5025323;28;20083;-68
2022/07/08 06:42:33;;;;;;;15.15;5.30;;;;;;;14.82;80.84;103094.31;5026719;28;20124;-69
2022/07/08 06:44:58;;;;;;;20.80;5.65;;;;;;;14.91;80.13;103090.34;5016084;28;20028;-69
2022/07/08 06:47:23;;;;;;;22.50;5.35;;;;;;;15.00;78.78;103097.41;5025653;28;20501;-69
2022/07/08 06:49:49;;;;;;;20.77;5.30;;;;;;;15.14;79.38;103090.00;5024081;28;20029;-68
2022/07/08 06:52:15;;;;;;;16.67;4.47;;;;;;;15.23;78.60;103096.22;5026672;28;20033;-68
2022/07/08 06:54:40;;;;;;;19.17;4.50;;;;;;;15.34;77.83;103097.53;5026618;28;21973;-69
2022/07/08 06:57:07;;;;;;;19.65;4.88;;;;;;;15.48;77.58;103102.06;5026272;28;20467;-68
2022/07/08 06:59:38;;;;;;;15.57;4.55;;;;;;;15.71;77.79;103101.72;5023845;28;20018;-68
2022/07/08 07:02:04;;;;;;;18.30;4.75;;;;;;;15.92;77.98;103097.94;5022775;28;20120;-68
2022/07/08 07:04:29;;;;;;;18.40;4.47;;;;;;;16.03;75.69;103092.59;5017412;28;20080;-69
2022/07/08 07:06:55;;;;;;;17.98;3.83;;;;;;;16.04;73.99;103091.53;5024649;28;20040;-68
2022/07/08 07:09:20;;;;;;;12.52;3.67;;;;;;;16.00;73.54;103092.16;5024592;28;20048;-69
2022/07/08 07:11:45;;;;;;;18.08;3.80;;;;;;;16.03;74.01;103088.97;5024389;28;20530;-68
2022/07/08 07:14:11;;;;;;;13.50;3.75;;;;;;;16.02;74.71;103098.38;5026303;28;20033;-69
2022/07/08 07:16:37;;;;;;;18.58;3.92;;;;;;;16.03;74.75;103092.59;5022004;28;20104;-69
2022/07/08 07:19:02;;;;;;;16.75;3.50;;;;;;;16.12;75.18;103098.78;5025280;28;20070;-68
2022/07/08 07:21:28;;;;;;;20.35;4.53;;;;;;;16.20;75.52;103093.00;5025310;28;20119;-69
2022/07/08 07:23:53;;;;;;;20.25;3.72;;;;;;;16.24;74.67;103102.63;5025552;28;20325;-68
2022/07/08 07:26:18;;;;;;;16.40;4.05;;;;;;;16.16;72.91;103093.66;5024330;28;20033;-69
2022/07/08 07:28:44;;;;;;;15.18;4.32;;;;;;;16.21;73.08;103094.72;5025872;28;20152;-68
2022/07/08 07:31:09;;;;;;;19.33;4.45;;;;;;;16.22;72.48;103093.69;5020933;28;20049;-71
2022/07/08 07:33:35;;;;;;;17.38;3.97;;;;;;;16.32;73.01;103093.22;5023349;28;20477;-69
2022/07/08 07:36:00;;;;;;;16.98;4.05;;;;;;;16.46;71.61;103088.53;5022553;28;20041;-69
2022/07/08 07:38:25;;;;;;;19.75;4.10;;;;;;;16.71;72.55;103092.34;5023287;28;20151;-69
2022/07/08 07:40:51;;;;;;;16.23;3.60;;;;;;;16.91;70.16;103097.84;5020217;28;20010;-68
2022/07/08 07:43:16;;;;;;;13.75;4.10;;;;;;;16.95;69.94;103099.13;5014471;28;20079;-68
2022/07/08 07:45:42;;;;;;;18.55;3.60;;;;;;;17.00;69.24;103096.53;5012027;28;20483;-69
2022/07/08 07:48:07;;;;;;;17.40;3.60;;;;;;;17.08;69.62;103093.53;5018828;28;20152;-69
2022/07/08 07:50:33;;;;;;;18.00;3.83;;;;;;;17.13;68.59;103090.06;5023475;28;20477;-69
2022/07/08 07:52:58;;;;;;;14.98;3.60;;;;;;;17.26;69.50;103095.56;5033618;28;20033;-69
2022/07/08 07:55:23;;;;;;;14.45;3.40;;;;;;;17.38;70.08;103104.06;5023709;28;20036;-69
2022/07/08 07:57:49;;;;;;;20.02;4.60;;;;;;;17.32;68.44;103097.47;5025444;28;20022;-69
2022/07/08 08:00:15;;;;;;;19.80;3.83;;;;;;;17.24;67.95;103100.50;5020944;28;20527;-69
2022/07/08 08:02:42;;;;;;;16.88;3.72;;;;;;;17.19;68.52;103099.47;5022880;28;20072;-69
2022/07/08 08:05:09;;;;;;;18.75;4.40;;;;;;;17.11;67.63;103095.00;5023060;28;20497;-69
2022/07/08 08:07:37;;;;;;;15.63;3.83;;;;;;;17.17;69.59;103096.03;5020732;28;20739;-68
2022/07/08 08:10:02;;;;;;;;;;;;;;;17.27;70.19;103100.03;5005350;28;20030;-68
2022/07/08 08:12:28;;;;;;;16.88;4.38;;;;;;;17.14;68.96;103096.50;5023570;28;20275;-69
2022/07/08 08:14:53;;;;;;;12.90;3.70;;;;;;;17.19;69.29;103093.91;5023998;28;20522;-68
2022/07/08 08:17:18;;;;;;;13.35;3.65;;;;;;;17.08;67.28;103089.88;5024706;28;20022;-68
2022/07/08 08:19:44;;;;;;;12.57;3.90;;;;;;;17.11;69.64;103092.22;5022330;28;20053;-68
2022/07/08 08:22:09;;;;;;;17.40;4.90;;;;;;;17.11;70.02;103098.63;5024018;28;20067;-68
2022/07/08 08:24:34;;;;;;;16.15;3.88;;;;;;;17.22;70.50;103099.00;5023328;28;20373;-68
2022/07/08 08:26:59;;;;;;;18.23;3.70;;;;;;;17.27;67.45;103105.59;5024691;28;20124;-68
2022/07/08 08:29:25;;;;;;;16.63;3.60;;;;;;;17.36;67.83;103106.22;5026188;28;20765;-68
2022/07/08 08:31:50;;;;;;;13.00;3.45;;;;;;;17.40;66.49;103101.94;5026352;28;20338;-69
2022/07/08 08:34:15;;;;;;;17.27;3.50;;;;;;;17.51;65.83;103097.59;5011919;28;20018;-68
2022/07/08 08:36:40;;;;;;;13.30;3.40;;;;;;;17.60;65.95;103102.66;5012998;28;20289;-69
2022/07/08 08:39:06;;;;;;;18.13;3.90;;;;;;;17.65;65.95;103099.22;5022052;28;20102;-69
2022/07/08 08:41:33;;;;;;;15.95;3.70;;;;;;;17.82;67.98;103102.34;5022559;28;20478;-69
2022/07/08 08:43:58;;;;;;;12.63;3.55;;;;;;;17.97;67.33;103102.88;5022913;28;20120;-68
2022/07/08 08:46:24;;;;;;;12.23;5.05;;;;;;;18.06;65.84;103098.75;5018912;28;20156;-69
2022/07/08 08:48:55;;;;;;;13.88;3.22;;;;;;;18.26;64.24;103089.38;5013985;28;20026;-68
2022/07/08 08:51:21;;;;;;;12.75;3.08;;;;;;;18.45;63.80;103088.34;5017501;28;20030;-68
2022/07/08 08:53:47;;;;;;;13.57;2.83;;;;;;;18.52;61.94;103091.91;5020586;28;20043;-68
2022/07/08 08:56:14;;;;;;;18.23;3.90;;;;;;;18.71;62.06;103092.81;5019418;28;20030;-69
2022/07/08 08:58:42;;;;;;;11.90;2.97;;;;;;;18.82;59.68;103088.41;5018755;28;21165;-68
2022/07/08 09:01:08;;;;;;;12.65;3.10;;;;;;;18.97;61.03;103091.66;5018623;28;20030;-68
2022/07/08 09:03:35;;;;;;;14.93;2.85;;;;;;;19.20;61.29;103090.94;5020340;28;20049;-68
2022/07/08 09:06:01;;;;;;;15.13;2.85;;;;;;;19.30;60.92;103079.25;5020138;28;20268;-68
2022/07/08 09:08:26;;;;;;;12.63;2.70;;;;;;;19.29;59.54;103083.13;5017772;28;20155;-68
2022/07/08 09:10:51;;;;;;;14.38;4.32;;;;;;;19.47;61.26;103080.31;5021269;28;20036;-68
2022/07/08 09:13:16;;;;;;;14.82;3.72;;;;;;;19.47;59.23;103088.66;5020198;28;20021;-68
2022/07/08 09:15:47;;;;;;;12.88;2.50;;;;;;;19.64;58.20;103083.31;5019986;28;20477;-69
2022/07/08 09:18:14;;;;;;;14.48;3.53;;;;;;;19.99;58.92;103075.03;5020597;28;20460;-68
2022/07/08 09:20:49;;;;;;;13.98;2.58;;;;;;;20.27;58.19;103073.47;5020881;28;20506;-68
2022/07/08 09:23:29;;;;;;;14.38;2.85;;;;;;;20.51;57.70;103074.38;5023109;28;20037;-68
2022/07/08 09:25:59;;;;;;;11.98;3.47;;;;;;;20.79;58.78;103077.25;5021597;28;20025;-68
2022/07/08 09:28:43;;;;;;;16.40;3.55;;;;;;;20.97;57.09;103076.22;5021311;28;20475;-68
2022/07/08 09:31:10;;;;;;;16.90;4.13;;;;;;;20.92;57.05;103076.97;5019131;28;20029;-68
2022/07/08 09:33:36;;;;;;;11.80;3.30;;;;;;;21.18;55.49;103077.50;5019973;28;20703;-68
2022/07/08 09:36:03;;;;;;;16.17;3.10;;;;;;;21.55;55.83;103075.22;5023428;28;20021;-71
2022/07/08 09:38:30;;;;;;;12.75;3.08;;;;;;;21.94;53.13;103073.41;5022661;28;20065;-69
2022/07/08 09:41:02;;;;;;;13.55;3.40;;;;;;;22.17;52.61;103075.22;5004161;28;20033;-69
2022/07/08 09:43:27;;;;;;;13.30;2.53;;;;;;;22.37;51.82;103073.88;5011397;28;20053;-68
2022/07/08 09:45:53;;;;;;;10.90;2.70;;;;;;;22.56;51.17;103075.28;5021722;28;20063;-68
2022/07/08 09:48:19;;;;;;;9.38;2.42;;;;;;;22.88;50.19;103083.00;5022526;28;20090;-68
2022/07/08 09:50:47;;;;;;;14.02;3.00;;;;;;;23.30;48.30;103086.94;5023926;28;20045;-68
2022/07/08 09:53:20;;;;;;;11.20;2.47;;;;;;;23.88;50.91;103080.88;5018105;28;20061;-68
2022/07/08 09:55:53;;;;;;;12.45;2.70;;;;;;;23.80;48.20;103083.03;5023281;28;20384;-68
2022/07/08 09:58:21;;;;;;;10.85;2.53;;;;;;;23.46;47.17;103084.31;5023025;28;20508;-70
2022/07/08 10:00:47;;;;;;;14.20;2.90;;;;;;;23.62;48.28;103088.13;5022092;28;20041;-68
2022/07/08 10:03:12;;;;;;;77.53;13.05;;;;;;;23.76;47.90;103081.84;5022417;28;20050;-67
2022/07/08 10:05:38;;;;;;;26.17;6.03;;;;;;;23.72;47.96;103091.94;5023286;28;20029;-67
2022/07/08 10:08:04;;;;;;;15.85;3.65;;;;;;;23.72;47.44;103085.44;5020062;28;20168;-67
2022/07/08 10:10:31;;;;;;;13.40;3.10;;;;;;;26.00;45.27;103087.00;5021973;28;20113;-67
2022/07/08 10:12:58;;;;;;;8.93;2.53;;;;;;;28.43;38.79;103092.72;5027892;28;20407;-67
2022/07/08 10:15:25;;;;;;;9.68;2.40;;;;;;;29.82;35.26;103087.03;5026219;28;20498;-68
2022/07/08 10:17:50;;;;;;;13.43;2.83;;;;;;;30.87;32.77;103087.47;5024974;28;20088;-66
2022/07/08 10:20:17;;;;;;;12.02;2.33;;;;;;;30.43;34.96;103088.00;5024718;28;20292;-69
2022/07/08 10:22:46;;;;;;;11.98;2.45;;;;;;;28.89;35.83;103083.78;5019675;28;20022;-68
2022/07/08 10:25:13;;;;;;;10.88;2.38;;;;;;;28.76;37.80;103090.13;5008120;28;20034;-69
2022/07/08 10:27:38;;;;;;;9.55;2.55;;;;;;;28.81;36.91;103092.06;5008259;28;20022;-68
2022/07/08 10:30:13;;;;;;;10.60;2.40;;;;;;;30.13;36.10;103087.41;5014876;28;20419;-68
2022/07/08 10:32:38;;;;;;;10.65;2.63;;;;;;;31.15;32.12;103076.91;5027648;28;20057;-69
2022/07/08 10:35:12;;;;;;;11.07;2.25;;;;;;;31.79;32.98;103079.72;5018447;28;20111;-68
2022/07/08 10:37:48;;;;;;;8.55;2.28;;;;;;;31.56;32.16;103078.84;5024457;28;25326;-69
2022/07/08 10:40:48;;;;;;;9.07;2.40;;;;;;;31.32;33.04;103079.09;5024555;28;20594;-69
2022/07/08 10:43:19;;;;;;;9.60;2.42;;;;;;;30.59;34.39;103080.88;5020123;28;20037;-67
2022/07/08 10:46:23;;;;;;;10.35;2.40;;;;;;;30.05;36.32;103078.72;5021908;28;20440;-68
2022/07/08 10:48:56;;;;;;;129.35;12.98;;;;;;;28.55;37.23;103072.56;5025648;28;20049;-68
2022/07/08 10:51:23;;;;;;;12.45;2.75;;;;;;;26.83;39.05;103072.56;5027001;28;20071;-67
2022/07/08 10:53:52;;;;;;;13.90;2.60;;;;;;;25.55;43.06;103078.22;5024080;28;20094;-67
2022/07/08 10:56:50;;;;;;;13.52;3.40;;;;;;;24.71;45.63;103065.19;5027062;28;20075;-67
2022/07/08 10:59:22;;;;;;;;;;;;;;;24.79;45.52;103069.47;5023527;28;20064;-68
2022/07/08 11:01:56;;;;;;;9.68;2.95;;;;;;;24.06;46.46;103075.66;5016520;28;19999;-68
2022/07/08 11:04:43;;;;;;;15.07;3.15;;;;;;;24.24;47.71;103068.81;5022180;28;20061;-67
2022/07/08 11:07:14;;;;;;;11.95;2.97;;;;;;;24.72;47.41;103063.25;5025665;28;20017;-67
2022/07/08 11:09:41;;;;;;;11.25;3.00;;;;;;;25.08;45.69;103064.28;5025510;28;20025;-67
2022/07/08 11:12:11;;;;;;;14.07;3.00;;;;;;;25.17;45.30;103065.44;5025235;28;20171;-69
2022/07/08 11:14:36;;;;;;;14.45;3.22;;;;;;;25.32;45.11;103059.03;5024237;28;20029;-68
2022/07/08 11:17:02;;;;;;;10.85;2.60;;;;;;;25.05;45.88;103060.03;5023593;28;20511;-68
2022/07/08 11:19:33;;;;;;;8.80;2.85;;;;;;;24.69;46.27;103064.66;5023755;28;20090;-68